createdAt,value
2019-03-05T00:01:44.495Z,5.90
2019-03-05T00:04:15.795Z,5.90
2019-03-05T00:06:44.967Z,5.90
2019-03-05T00:09:23.406Z,5.70
2019-03-05T00:11:52.874Z,5.60
2019-03-05T00:14:24.975Z,5.30
2019-03-05T00:16:54.324Z,5.00
2019-03-05T00:19:23.625Z,4.70
2019-03-05T00:21:53.050Z,4.40
2019-03-05T00:24:59.819Z,4.20
2019-03-05T00:27:31.370Z,4.20
2019-03-05T00:30:20.474Z,3.90
2019-03-05T00:32:56.038Z,3.80
2019-03-05T00:35:57.245Z,3.90
2019-03-05T00:38:48.836Z,3.80
2019-03-05T00:41:54.435Z,3.80
2019-03-05T00:44:43.709Z,3.80
2019-03-05T00:47:51.195Z,3.60
2019-03-05T00:50:51.862Z,3.50
2019-03-05T00:54:16.408Z,3.50
2019-03-05T00:56:59.130Z,3.40
2019-03-05T01:00:05.558Z,3.40
2019-03-05T01:03:06.789Z,3.40
2019-03-05T01:05:50.899Z,3.40
2019-03-05T01:08:20.172Z,3.40
2019-03-05T01:10:49.825Z,3.50
2019-03-05T01:13:19.424Z,3.50
2019-03-05T01:15:51.456Z,3.50
2019-03-05T01:18:20.843Z,3.50
2019-03-05T01:20:50.189Z,3.40
2019-03-05T01:23:22.327Z,3.40
2019-03-05T01:25:51.577Z,3.50
2019-03-05T01:28:20.882Z,3.50
2019-03-05T01:31:18.369Z,3.50
2019-03-05T01:34:10.915Z,3.60
2019-03-05T01:36:43.448Z,3.60
2019-03-05T01:39:35.345Z,3.60
2019-03-05T01:42:05.819Z,3.60
2019-03-05T01:44:35.303Z,3.60
2019-03-05T01:47:04.852Z,3.60
2019-03-05T01:49:34.154Z,3.60
2019-03-05T01:52:03.483Z,3.70
2019-03-05T01:54:32.793Z,3.70
2019-03-05T01:57:02.141Z,3.70
2019-03-05T01:59:31.466Z,3.70
2019-03-05T02:02:01.083Z,3.80
2019-03-05T02:04:30.449Z,3.80
2019-03-05T02:06:59.770Z,3.80
2019-03-05T02:09:29.240Z,3.80
2019-03-05T02:11:58.537Z,3.90
2019-03-05T02:14:28.163Z,4.00
2019-03-05T02:16:57.517Z,4.00
2019-03-05T02:19:41.072Z,4.10
2019-03-05T02:22:17.426Z,4.20
2019-03-05T02:25:24.905Z,4.30
2019-03-05T02:28:24.409Z,4.40
2019-03-05T02:31:28.078Z,4.50
2019-03-05T02:34:31.578Z,4.50
2019-03-05T02:37:20.635Z,4.60
2019-03-05T02:40:25.100Z,4.60
2019-03-05T02:43:26.725Z,4.70
2019-03-05T02:46:37.164Z,4.70
2019-03-05T02:49:52.300Z,4.70
2019-03-05T02:53:20.565Z,4.80
2019-03-05T02:56:35.942Z,4.80
2019-03-05T02:59:03.597Z,4.70
2019-03-05T03:01:50.368Z,4.80
2019-03-05T03:04:21.509Z,4.70
2019-03-05T03:06:50.858Z,4.70
2019-03-05T03:10:07.391Z,4.70
2019-03-05T03:12:36.837Z,4.90
2019-03-05T03:15:11.475Z,4.50
2019-03-05T03:17:40.898Z,4.60
2019-03-05T03:20:11.313Z,4.60
2019-03-05T03:22:40.600Z,4.60
2019-03-05T03:25:11.379Z,4.60
2019-03-05T03:27:40.688Z,4.60
2019-03-05T03:30:12.386Z,4.50
2019-03-05T03:32:41.741Z,4.50
2019-03-05T03:35:12.102Z,4.50
2019-03-05T03:37:41.443Z,4.50
2019-03-05T03:40:13.264Z,4.50
2019-03-05T03:42:42.689Z,4.60
2019-03-05T03:45:17.397Z,4.60
2019-03-05T03:47:46.751Z,4.50
2019-03-05T03:50:16.041Z,4.60
2019-03-05T03:52:45.357Z,4.60
2019-03-05T03:55:15.118Z,4.60
2019-03-05T03:57:44.387Z,4.60
2019-03-05T04:00:17.824Z,4.60
2019-03-05T04:02:47.428Z,4.60
2019-03-05T04:05:16.972Z,4.60
2019-03-05T04:07:46.328Z,4.60
2019-03-05T04:10:15.718Z,4.60
2019-03-05T04:12:45.050Z,4.60
2019-03-05T04:15:16.020Z,4.70
2019-03-05T04:17:46.970Z,4.70
2019-03-05T04:20:24.459Z,4.70
2019-03-05T04:22:53.809Z,4.70
2019-03-05T04:25:23.408Z,4.70
2019-03-05T04:27:53.017Z,4.80
2019-03-05T04:30:22.262Z,4.80
2019-03-05T04:32:51.557Z,4.80
2019-03-05T04:35:20.890Z,4.80
2019-03-05T04:37:50.192Z,4.70
2019-03-05T04:40:19.558Z,4.70
2019-03-05T04:42:49.142Z,4.70
2019-03-05T04:45:51.294Z,4.70
2019-03-05T04:48:20.569Z,4.60
2019-03-05T04:50:53.383Z,4.60
2019-03-05T04:53:22.663Z,4.70
2019-03-05T04:55:51.969Z,4.60
2019-03-05T04:58:21.281Z,4.60
2019-03-05T05:00:50.835Z,4.60
2019-03-05T05:03:20.272Z,4.60
2019-03-05T05:05:49.589Z,4.60
2019-03-05T05:08:18.888Z,4.60
2019-03-05T05:10:48.175Z,4.60
2019-03-05T05:13:17.480Z,4.60
2019-03-05T05:15:46.783Z,4.60
2019-03-05T05:18:16.071Z,4.60
2019-03-05T05:20:45.340Z,4.60
2019-03-05T05:23:14.634Z,4.50
2019-03-05T05:25:43.924Z,4.50
2019-03-05T05:28:13.246Z,4.50
2019-03-05T05:30:42.535Z,4.50
2019-03-05T05:33:11.836Z,4.60
2019-03-05T05:35:41.381Z,4.60
2019-03-05T05:38:10.675Z,4.50
2019-03-05T05:40:41.658Z,4.50
2019-03-05T05:43:13.982Z,4.40
2019-03-05T05:45:45.267Z,4.40
2019-03-05T05:48:14.584Z,4.30
2019-03-05T05:50:44.082Z,4.20
2019-03-05T05:53:13.700Z,4.10
2019-03-05T05:55:43.037Z,4.10
2019-03-05T05:58:12.328Z,4.40
2019-03-05T06:00:43.536Z,4.20
2019-03-05T06:03:12.802Z,4.10
2019-03-05T06:05:42.123Z,4.00
2019-03-05T06:08:11.380Z,4.00
2019-03-05T06:10:40.677Z,3.90
2019-03-05T06:13:09.957Z,3.80
2019-03-05T06:15:39.229Z,3.80
2019-03-05T06:18:08.553Z,3.70
2019-03-05T06:20:37.882Z,3.70
2019-03-05T06:23:07.229Z,3.60
2019-03-05T06:25:36.556Z,3.50
2019-03-05T06:28:06.144Z,3.40
2019-03-05T06:30:35.847Z,3.40
2019-03-05T06:33:05.182Z,3.20
2019-03-05T06:35:34.512Z,3.20
2019-03-05T06:38:04.274Z,3.20
2019-03-05T06:40:33.938Z,3.20
2019-03-05T06:43:03.243Z,3.20
2019-03-05T06:45:32.474Z,3.20
2019-03-05T06:48:01.746Z,3.30
2019-03-05T06:50:31.481Z,3.30
2019-03-05T06:53:01.149Z,3.30
2019-03-05T06:55:30.423Z,3.30
2019-03-05T06:57:59.728Z,3.40
2019-03-05T07:00:32.973Z,3.40
2019-03-05T07:03:02.463Z,3.50
2019-03-05T07:06:07.207Z,3.40
2019-03-05T07:08:38.423Z,3.50
2019-03-05T07:11:41.892Z,3.50
2019-03-05T07:14:16.967Z,3.60
2019-03-05T07:16:52.990Z,3.60
2019-03-05T07:19:34.782Z,3.70
2019-03-05T07:22:30.101Z,3.70
2019-03-05T07:24:59.403Z,3.70
2019-03-05T07:27:31.011Z,3.70
2019-03-05T07:30:10.104Z,3.70
2019-03-05T07:32:39.416Z,3.80
2019-03-05T07:35:09.754Z,3.80
2019-03-05T07:37:38.973Z,3.80
2019-03-05T07:40:09.099Z,3.80
2019-03-05T07:42:38.399Z,3.90
2019-03-05T07:45:07.993Z,3.90
2019-03-05T07:47:37.358Z,3.90
2019-03-05T07:50:07.667Z,3.90
2019-03-05T07:52:37.375Z,3.90
2019-03-05T07:55:13.608Z,3.90
2019-03-05T07:57:39.913Z,3.90
2019-03-05T08:00:12.741Z,3.90
2019-03-05T08:02:42.867Z,4.00
2019-03-05T08:05:13.930Z,3.90
2019-03-05T08:07:43.413Z,4.00
2019-03-05T08:10:30.094Z,4.00
2019-03-05T08:13:25.105Z,4.00
2019-03-05T08:16:23.484Z,4.10
2019-03-05T08:18:52.841Z,4.10
2019-03-05T08:21:22.185Z,4.10
2019-03-05T08:23:51.578Z,4.20
2019-03-05T08:26:20.935Z,4.30
2019-03-05T08:28:53.385Z,4.30
2019-03-05T08:31:37.058Z,4.40
2019-03-05T08:34:05.705Z,4.40
2019-03-05T08:36:50.215Z,4.40
2019-03-05T08:39:36.852Z,4.50
2019-03-05T08:42:15.565Z,4.50
2019-03-05T08:44:50.472Z,4.50
2019-03-05T08:47:19.273Z,4.50
2019-03-05T08:50:02.360Z,4.50
2019-03-05T08:52:31.901Z,4.60
2019-03-05T08:55:05.812Z,4.60
2019-03-05T08:57:59.610Z,4.60
2019-03-05T09:00:36.024Z,4.60
2019-03-05T09:03:06.366Z,4.70
2019-03-05T09:05:36.239Z,4.70
2019-03-05T09:08:18.642Z,4.80
2019-03-05T09:10:45.744Z,4.80
2019-03-05T09:13:19.529Z,4.80
2019-03-05T09:15:58.210Z,4.90
2019-03-05T09:18:42.856Z,4.90
2019-03-05T09:21:20.928Z,5.00
2019-03-05T09:23:58.607Z,5.00
2019-03-05T09:26:28.852Z,5.00
2019-03-05T09:28:58.291Z,5.00
2019-03-05T09:31:28.020Z,5.00
2019-03-05T09:33:57.355Z,5.00
2019-03-05T09:36:26.723Z,5.00
2019-03-05T09:38:56.021Z,4.90
2019-03-05T09:41:25.406Z,5.00
2019-03-05T09:43:54.691Z,5.00
2019-03-05T09:46:23.954Z,5.00
2019-03-05T09:48:53.167Z,5.00
2019-03-05T09:51:22.431Z,5.00
2019-03-05T09:53:51.666Z,5.10
2019-03-05T09:56:21.171Z,5.10
2019-03-05T09:58:50.444Z,5.20
2019-03-05T10:01:19.737Z,5.20
2019-03-05T10:03:49.068Z,5.20
2019-03-05T10:06:18.358Z,5.30
2019-03-05T10:08:47.684Z,5.30
2019-03-05T10:11:17.109Z,5.30
2019-03-05T10:13:46.483Z,5.30
2019-03-05T10:16:17.548Z,5.30
2019-03-05T10:18:46.954Z,5.30
2019-03-05T10:21:17.116Z,5.40
2019-03-05T10:23:46.989Z,5.40
2019-03-05T10:26:18.512Z,5.50
2019-03-05T10:28:47.594Z,5.50
2019-03-05T10:31:18.695Z,5.60
2019-03-05T10:33:48.151Z,5.60
2019-03-05T10:36:17.632Z,5.50
2019-03-05T10:38:56.838Z,5.60
2019-03-05T10:41:18.709Z,5.60
2019-03-05T10:43:48.053Z,5.80
2019-03-05T10:46:17.431Z,5.90
2019-03-05T10:48:46.716Z,5.90
2019-03-05T10:51:16.042Z,6.00
2019-03-05T10:53:45.394Z,6.10
2019-03-05T10:56:14.774Z,6.30
2019-03-05T10:58:44.060Z,6.40
2019-03-05T11:01:14.344Z,6.40
2019-03-05T11:03:43.601Z,6.50
2019-03-05T11:06:12.995Z,6.60
2019-03-05T11:08:42.261Z,6.60
2019-03-05T11:11:13.786Z,6.60
2019-03-05T11:13:43.102Z,6.70
2019-03-05T11:16:12.660Z,6.80
2019-03-05T11:18:41.968Z,6.80
2019-03-05T11:21:11.280Z,6.70
2019-03-05T11:23:42.118Z,6.70
2019-03-05T11:26:11.408Z,6.70
2019-03-05T11:28:42.360Z,6.80
2019-03-05T11:31:11.651Z,6.70
2019-03-05T11:33:40.987Z,6.60
2019-03-05T11:36:10.230Z,6.40
2019-03-05T11:38:39.539Z,6.30
2019-03-05T11:41:08.855Z,6.30
2019-03-05T11:43:38.835Z,6.40
2019-03-05T11:46:15.281Z,6.50
2019-03-05T11:48:44.867Z,6.50
2019-03-05T11:51:14.234Z,6.50
2019-03-05T11:53:43.616Z,6.50
2019-03-05T11:56:12.932Z,6.40
2019-03-05T11:58:42.220Z,6.50
2019-03-05T12:01:18.354Z,6.50
2019-03-05T12:03:48.014Z,6.60
2019-03-05T12:06:17.317Z,6.60
2019-03-05T12:08:46.646Z,6.50
2019-03-05T12:11:16.025Z,6.50
2019-03-05T12:13:45.339Z,6.60
2019-03-05T12:16:15.289Z,6.80
2019-03-05T12:18:44.673Z,7.00
2019-03-05T12:21:13.952Z,7.20
2019-03-05T12:23:46.673Z,7.40
2019-03-05T12:26:14.287Z,7.30
2019-03-05T12:28:43.619Z,7.40
2019-03-05T12:31:13.228Z,7.40
2019-03-05T12:33:42.575Z,6.90
2019-03-05T12:36:12.637Z,6.90
2019-03-05T12:38:42.036Z,7.10
2019-03-05T12:41:11.363Z,7.50
2019-03-05T12:43:40.717Z,7.70
2019-03-05T12:46:10.081Z,7.80
2019-03-05T12:48:40.455Z,8.30
2019-03-05T12:51:10.595Z,8.40
2019-03-05T12:53:39.966Z,8.70
2019-03-05T12:56:09.253Z,8.50
2019-03-05T12:58:38.456Z,8.60
2019-03-05T13:01:08.833Z,8.60
2019-03-05T13:03:38.048Z,8.60
2019-03-05T13:06:07.350Z,8.40
2019-03-05T13:08:36.647Z,8.10
2019-03-05T13:11:09.511Z,8.30
2019-03-05T13:13:37.474Z,8.50
2019-03-05T13:19:34.826Z,9.30
2019-03-05T13:22:04.927Z,9.50
2019-03-05T13:24:34.337Z,9.20
2019-03-05T13:27:03.926Z,9.70
2019-03-05T13:29:33.220Z,9.90
2019-03-05T13:32:02.907Z,9.90
2019-03-05T13:34:32.286Z,9.90
2019-03-05T13:37:01.700Z,10.10
2019-03-05T13:39:31.049Z,10.30
2019-03-05T13:42:00.403Z,10.10
2019-03-05T13:44:36.233Z,10.10
2019-03-05T13:47:07.758Z,9.70
2019-03-05T13:50:04.406Z,9.40
2019-03-05T13:53:02.511Z,9.30
2019-03-05T13:56:12.106Z,9.10
2019-03-05T13:59:37.532Z,9.20
2019-03-05T14:02:08.483Z,9.10
2019-03-05T14:05:01.834Z,9.00
2019-03-05T14:08:17.667Z,9.00
2019-03-05T14:10:47.059Z,8.90
2019-03-05T14:13:16.755Z,9.50
2019-03-05T14:15:46.184Z,9.70
2019-03-05T14:18:15.615Z,10.30
2019-03-05T14:20:45.041Z,9.70
2019-03-05T14:23:14.416Z,9.30
2019-03-05T14:25:43.847Z,9.50
2019-03-05T14:28:13.670Z,9.30
2019-03-05T14:30:43.434Z,9.20
2019-03-05T14:33:12.939Z,9.40
2019-03-05T14:35:42.888Z,9.60
2019-03-05T14:38:12.259Z,9.90
2019-03-05T14:40:41.877Z,9.60
2019-03-05T14:43:12.117Z,9.70
2019-03-05T14:45:41.622Z,9.50
2019-03-05T14:48:11.015Z,9.40
2019-03-05T14:50:40.635Z,9.30
2019-03-05T14:53:11.406Z,9.30
2019-03-05T14:55:41.045Z,9.20
2019-03-05T14:58:10.495Z,9.10
2019-03-05T15:00:40.457Z,8.80
2019-03-05T15:03:09.874Z,8.80
2019-03-05T15:05:39.249Z,8.70
2019-03-05T15:08:08.889Z,8.70
2019-03-05T15:10:38.201Z,8.60
2019-03-05T15:13:15.773Z,8.50
2019-03-05T15:15:38.683Z,8.50
2019-03-05T15:18:08.080Z,8.40
2019-03-05T15:20:37.447Z,8.40
2019-03-05T15:23:06.912Z,8.40
2019-03-05T15:25:36.626Z,8.50
2019-03-05T15:28:07.926Z,8.80
2019-03-05T15:30:38.009Z,8.70
2019-03-05T15:33:12.075Z,8.70
2019-03-05T15:35:42.561Z,8.80
2019-03-05T15:38:12.081Z,8.80
2019-03-05T15:40:41.773Z,8.70
2019-03-05T15:43:11.206Z,8.70
2019-03-05T15:45:42.957Z,8.60
2019-03-05T15:48:12.361Z,8.70
2019-03-05T15:50:44.399Z,8.70
2019-03-05T15:53:14.258Z,8.70
2019-03-05T15:55:43.672Z,8.80
2019-03-05T15:58:13.065Z,8.70
2019-03-05T16:00:43.212Z,8.70
2019-03-05T16:03:12.522Z,8.70
2019-03-05T16:05:41.881Z,8.60
2019-03-05T16:08:11.995Z,8.50
2019-03-05T16:10:41.404Z,8.40
2019-03-05T16:13:11.135Z,8.30
2019-03-05T16:19:08.464Z,8.30
2019-03-05T16:21:41.272Z,8.20
2019-03-05T16:24:11.228Z,8.20
2019-03-05T16:26:40.660Z,8.10
2019-03-05T16:29:10.433Z,8.20
2019-03-05T16:31:57.774Z,8.10
2019-03-05T16:34:56.722Z,8.10
2019-03-05T16:38:03.743Z,8.20
2019-03-05T16:40:52.663Z,8.10
2019-03-05T16:43:53.166Z,8.10
2019-03-05T16:46:43.076Z,7.90
2019-03-05T16:49:37.547Z,7.90
2019-03-05T16:52:22.747Z,7.80
2019-03-05T16:55:16.429Z,7.80
2019-03-05T16:58:18.130Z,7.80
2019-03-05T17:00:59.798Z,7.70
2019-03-05T17:03:50.419Z,7.60
2019-03-05T17:06:50.993Z,7.70
2019-03-05T17:09:36.814Z,7.50
2019-03-05T17:12:06.585Z,7.50
2019-03-05T17:14:36.124Z,7.40
2019-03-05T17:17:17.132Z,7.30
2019-03-05T17:19:54.206Z,7.30
2019-03-05T17:22:32.466Z,7.20
2019-03-05T17:25:49.934Z,7.10
2019-03-05T17:29:14.690Z,7.10
2019-03-05T17:32:51.460Z,7.00
2019-03-05T17:35:22.730Z,6.90
2019-03-05T17:38:29.855Z,6.80
2019-03-05T17:41:42.683Z,6.70
2019-03-05T17:44:44.123Z,6.70
2019-03-05T17:51:31.796Z,6.60
2019-03-05T17:54:55.293Z,6.50
2019-03-05T17:57:34.986Z,6.40
2019-03-05T18:00:42.704Z,6.30
2019-03-05T18:07:19.491Z,6.40
2019-03-05T18:13:00.261Z,6.40
2019-03-05T18:15:39.302Z,6.30
2019-03-05T18:18:28.395Z,6.30
2019-03-05T18:20:56.287Z,6.20
2019-03-05T18:23:35.458Z,6.20
2019-03-05T18:26:05.180Z,6.20
2019-03-05T18:28:42.847Z,6.20
2019-03-05T18:31:14.305Z,6.10
2019-03-05T18:33:43.801Z,6.10
2019-03-05T18:36:15.339Z,6.10
2019-03-05T18:38:44.659Z,6.00
2019-03-05T18:41:14.144Z,6.00
2019-03-05T18:43:46.133Z,5.90
2019-03-05T18:46:17.377Z,5.90
2019-03-05T18:48:47.052Z,5.90
2019-03-05T18:51:18.213Z,5.80
2019-03-05T18:53:47.762Z,5.70
2019-03-05T18:56:17.423Z,5.70
2019-03-05T18:58:48.803Z,5.70
2019-03-05T19:01:22.395Z,5.60
2019-03-05T19:03:51.881Z,5.60
2019-03-05T19:06:23.013Z,5.50
2019-03-05T19:08:52.413Z,5.50
2019-03-05T19:11:29.273Z,5.40
2019-03-05T19:13:58.266Z,5.40
2019-03-05T19:16:39.588Z,5.40
2019-03-05T19:19:09.595Z,5.50
2019-03-05T19:21:45.307Z,5.50
2019-03-05T19:24:15.277Z,5.50
2019-03-05T19:26:45.012Z,5.40
2019-03-05T19:29:20.663Z,5.40
2019-03-05T19:32:08.451Z,5.40
2019-03-05T19:34:39.116Z,5.40
2019-03-05T19:37:08.650Z,5.40
2019-03-05T19:39:41.224Z,5.40
2019-03-05T19:42:15.925Z,5.40
2019-03-05T19:44:54.742Z,5.40
2019-03-05T19:47:24.540Z,5.50
2019-03-05T19:50:35.155Z,5.50
2019-03-05T19:53:12.271Z,5.50
2019-03-05T19:56:24.750Z,5.50
2019-03-05T19:59:26.474Z,5.50
2019-03-05T20:02:06.331Z,5.50
2019-03-05T20:04:46.583Z,5.50
2019-03-05T20:07:29.453Z,5.50
2019-03-05T20:09:57.244Z,5.50
2019-03-05T20:12:42.344Z,5.50
2019-03-05T20:15:31.494Z,5.50
2019-03-05T20:18:07.326Z,5.50
2019-03-05T20:20:40.198Z,5.50
2019-03-05T20:23:26.186Z,5.60
2019-03-05T20:26:04.348Z,5.60
2019-03-05T20:28:38.108Z,5.60
2019-03-05T20:31:09.422Z,5.60
2019-03-05T20:33:46.111Z,5.70
2019-03-05T20:36:17.054Z,5.70
2019-03-05T20:38:50.031Z,5.60
2019-03-05T20:41:20.887Z,5.60
2019-03-05T20:43:50.307Z,5.70
2019-03-05T20:46:25.512Z,5.70
2019-03-05T20:48:55.777Z,5.70
2019-03-05T20:51:25.834Z,5.70
2019-03-05T20:53:55.813Z,5.70
2019-03-05T20:56:25.525Z,5.80
2019-03-05T20:58:55.111Z,5.90
2019-03-05T21:01:24.582Z,6.00
2019-03-05T21:03:54.038Z,6.10
2019-03-05T21:06:24.178Z,6.20
2019-03-05T21:08:53.663Z,6.30
2019-03-05T21:11:30.948Z,6.40
2019-03-05T21:14:03.495Z,6.50
2019-03-05T21:16:54.269Z,6.50
2019-03-05T21:19:38.574Z,6.60
2019-03-05T21:22:15.834Z,6.70
2019-03-05T21:25:07.983Z,6.80
2019-03-05T21:27:37.827Z,6.80
2019-03-05T21:30:10.569Z,6.90
2019-03-05T21:32:40.044Z,6.90
2019-03-05T21:35:10.078Z,6.90
2019-03-05T21:37:39.556Z,6.90
2019-03-05T21:40:12.663Z,6.90
2019-03-05T21:42:42.110Z,6.90
2019-03-05T21:45:13.071Z,6.90
2019-03-05T21:47:42.789Z,6.90
2019-03-05T21:50:13.020Z,6.80
2019-03-05T21:52:42.470Z,6.80
2019-03-05T21:55:12.044Z,6.80
2019-03-05T21:57:41.423Z,6.80
2019-03-05T22:00:17.955Z,6.80
2019-03-05T22:02:47.341Z,6.80
2019-03-05T22:05:16.766Z,6.70
2019-03-05T22:07:46.188Z,6.70
2019-03-05T22:10:17.285Z,6.70
2019-03-05T22:12:48.466Z,6.80
2019-03-05T22:15:18.932Z,6.90
2019-03-05T22:17:48.425Z,6.90
2019-03-05T22:20:18.547Z,7.00
2019-03-05T22:22:48.019Z,7.00
2019-03-05T22:25:19.848Z,7.00
2019-03-05T22:27:49.370Z,7.00
2019-03-05T22:30:23.671Z,7.10
2019-03-05T22:32:53.344Z,7.10
2019-03-05T22:35:23.037Z,7.20
2019-03-05T22:37:52.746Z,7.20
2019-03-05T22:40:27.905Z,7.20
2019-03-05T22:43:00.056Z,7.20
2019-03-05T22:45:34.472Z,7.20
2019-03-05T22:48:11.019Z,7.30
2019-03-05T22:50:41.968Z,7.30
2019-03-05T22:53:17.271Z,7.30
2019-03-05T22:55:46.908Z,7.30
2019-03-05T22:58:25.359Z,7.30
2019-03-05T23:01:21.203Z,7.40
2019-03-05T23:04:02.805Z,7.40
2019-03-05T23:06:35.713Z,7.40
2019-03-05T23:09:32.394Z,7.40
2019-03-05T23:12:03.288Z,7.40
2019-03-05T23:14:35.535Z,7.40
2019-03-05T23:17:07.217Z,7.40
2019-03-05T23:19:48.477Z,7.40
2019-03-05T23:22:19.439Z,7.40
2019-03-05T23:25:00.432Z,7.40
2019-03-05T23:27:33.367Z,7.40
2019-03-05T23:30:16.690Z,7.50
2019-03-05T23:32:47.441Z,7.50
2019-03-05T23:35:17.143Z,7.50
2019-03-05T23:37:46.742Z,7.60
2019-03-05T23:40:16.810Z,7.60
2019-03-05T23:42:51.346Z,7.60
2019-03-05T23:45:21.270Z,7.60
2019-03-05T23:47:57.820Z,7.70
2019-03-05T23:50:40.687Z,7.70
2019-03-05T23:53:14.859Z,7.70
2019-03-05T23:55:50.772Z,7.80
2019-03-05T23:58:30.870Z,7.70
